createdAt,value
2022-10-30T00:04:14.460Z,15.43
2022-10-30T00:09:16.755Z,21.13
2022-10-30T00:14:19.146Z,19.52
2022-10-30T00:19:21.464Z,19.67
2022-10-30T00:24:24.388Z,17.88
2022-10-30T00:29:26.707Z,21.52
2022-10-30T00:34:29.097Z,20.13
2022-10-30T00:39:31.545Z,18.05
2022-10-30T00:44:46.404Z,13.50
2022-10-30T00:50:16.174Z,17.70
2022-10-30T00:55:24.382Z,16.05
2022-10-30T01:00:28.244Z,17.60
2022-10-30T01:05:31.589Z,20.55
2022-10-30T01:10:34.065Z,15.88
2022-10-30T01:15:39.162Z,21.83
2022-10-30T01:21:08.292Z,15.88
2022-10-30T01:26:23.359Z,17.65
2022-10-30T01:31:56.492Z,14.35
2022-10-30T01:37:08.584Z,14.90
2022-10-30T01:42:42.906Z,16.77
2022-10-30T01:48:12.802Z,20.30
2022-10-30T01:53:30.620Z,16.60
2022-10-30T01:58:44.292Z,15.52
2022-10-30T02:03:47.261Z,16.33
2022-10-30T02:08:49.629Z,19.73
2022-10-30T02:13:53.686Z,18.25
2022-10-30T02:18:55.935Z,14.48
2022-10-30T02:23:58.202Z,15.98
2022-10-30T02:29:00.852Z,17.88
2022-10-30T02:34:03.511Z,23.15
2022-10-30T02:39:07.081Z,17.58
2022-10-30T02:44:11.122Z,20.23
2022-10-30T02:49:13.459Z,18.90
2022-10-30T02:54:15.817Z,15.27
2022-10-30T02:59:18.248Z,20.45
2022-10-30T03:04:20.702Z,18.73
2022-10-30T03:09:23.628Z,18.00
2022-10-30T03:14:26.120Z,14.35
2022-10-30T03:19:28.457Z,15.00
2022-10-30T03:24:30.806Z,16.95
2022-10-30T03:29:33.173Z,15.90
2022-10-30T03:34:38.153Z,19.60
2022-10-30T03:39:42.764Z,15.93
2022-10-30T03:44:45.157Z,17.27
2022-10-30T03:49:47.457Z,19.77
2022-10-30T03:54:54.417Z,15.50
2022-10-30T03:59:56.991Z,17.38
2022-10-30T04:05:17.610Z,18.77
2022-10-30T04:10:23.710Z,15.52
2022-10-30T04:15:26.993Z,16.30
2022-10-30T04:20:29.434Z,16.27
2022-10-30T04:25:34.173Z,13.30
2022-10-30T04:30:38.697Z,16.73
2022-10-30T04:35:43.085Z,13.85
2022-10-30T04:40:52.110Z,14.68
2022-10-30T04:45:54.548Z,16.02
2022-10-30T04:50:59.496Z,17.15
2022-10-30T04:56:02.356Z,15.95
2022-10-30T05:01:06.900Z,13.98
2022-10-30T05:06:23.100Z,16.38
2022-10-30T05:11:25.899Z,14.23
2022-10-30T05:16:28.298Z,18.50
2022-10-30T05:21:33.008Z,15.93
2022-10-30T05:26:35.293Z,14.77
2022-10-30T05:31:37.696Z,18.48
2022-10-30T05:36:51.965Z,20.15
2022-10-30T05:41:55.957Z,13.70
2022-10-30T05:47:01.473Z,12.50
2022-10-30T05:52:07.286Z,13.70
2022-10-30T05:57:09.611Z,14.05
2022-10-30T06:02:14.488Z,13.80
2022-10-30T06:07:17.448Z,17.77
2022-10-30T06:12:19.928Z,17.90
2022-10-30T06:17:48.757Z,19.05
2022-10-30T06:23:01.565Z,24.50
2022-10-30T06:28:14.934Z,14.38
2022-10-30T06:33:17.981Z,22.10
2022-10-30T06:38:24.851Z,14.80
2022-10-30T06:43:28.983Z,21.80
2022-10-30T06:48:39.206Z,19.10
2022-10-30T06:53:41.555Z,18.13
2022-10-30T06:59:02.371Z,25.92
2022-10-30T07:04:23.329Z,16.60
2022-10-30T07:09:25.974Z,20.23
2022-10-30T07:14:28.615Z,21.52
2022-10-30T07:19:53.987Z,19.90
2022-10-30T07:24:56.649Z,20.80
2022-10-30T07:30:22.711Z,18.00
2022-10-30T07:35:48.229Z,17.52
2022-10-30T07:41:01.000Z,13.70
2022-10-30T07:46:21.555Z,13.23
2022-10-30T07:51:42.881Z,13.93
2022-10-30T07:56:46.382Z,16.45
2022-10-30T08:01:51.992Z,12.27
2022-10-30T08:07:03.477Z,13.65
2022-10-30T08:12:06.388Z,13.80
2022-10-30T08:17:10.764Z,15.65
2022-10-30T08:22:14.984Z,17.02
2022-10-30T08:27:22.215Z,27.00
2022-10-30T08:32:24.718Z,22.02
2022-10-30T08:37:46.973Z,23.77
2022-10-30T08:42:56.902Z,23.98
2022-10-30T08:48:04.053Z,21.77
2022-10-30T08:53:12.756Z,22.63
2022-10-30T08:58:15.339Z,19.73
2022-10-30T09:03:17.797Z,15.95
2022-10-30T09:08:38.730Z,19.35
2022-10-30T09:13:46.165Z,14.07
2022-10-30T09:18:48.636Z,10.68
2022-10-30T09:23:51.322Z,14.70
2022-10-30T09:29:26.179Z,14.68
2022-10-30T09:34:52.997Z,12.48
2022-10-30T09:40:04.566Z,10.90
2022-10-30T09:45:29.829Z,12.35
2022-10-30T09:50:56.100Z,12.05
2022-10-30T09:56:09.334Z,10.13
2022-10-30T10:01:23.585Z,8.68
2022-10-30T10:06:38.445Z,11.57
2022-10-30T10:12:03.466Z,12.02
2022-10-30T10:17:06.745Z,10.23
2022-10-30T10:22:26.874Z,9.88
2022-10-30T10:28:00.173Z,9.07
2022-10-30T10:33:10.273Z,11.18
2022-10-30T10:38:12.512Z,8.77
2022-10-30T10:43:19.191Z,9.32
2022-10-30T10:48:42.859Z,8.18
2022-10-30T10:54:09.575Z,8.48
2022-10-30T10:59:19.090Z,8.40
2022-10-30T11:04:37.911Z,13.07
2022-10-30T11:09:40.695Z,8.30
2022-10-30T11:14:43.036Z,8.93
2022-10-30T11:19:47.816Z,10.32
2022-10-30T11:24:53.299Z,11.00
2022-10-30T11:29:59.748Z,11.15
2022-10-30T11:35:09.223Z,10.63
2022-10-30T11:40:11.644Z,9.13
2022-10-30T11:45:26.231Z,9.90
2022-10-30T11:50:32.593Z,9.10
2022-10-30T11:55:42.591Z,7.97
2022-10-30T12:00:45.439Z,9.27
2022-10-30T12:05:50.274Z,11.80
2022-10-30T12:11:03.887Z,10.00
2022-10-30T12:16:15.395Z,6.80
2022-10-30T12:21:19.819Z,10.45
2022-10-30T12:26:23.431Z,10.85
2022-10-30T12:31:31.877Z,10.52
2022-10-30T12:36:37.221Z,16.67
2022-10-30T12:42:01.684Z,12.23
2022-10-30T12:47:04.112Z,12.43
2022-10-30T12:52:39.052Z,10.10
2022-10-30T12:57:45.415Z,10.05
2022-10-30T13:03:12.361Z,9.02
2022-10-30T13:08:14.639Z,11.32
2022-10-30T13:13:24.001Z,8.70
2022-10-30T13:18:27.188Z,14.00
2022-10-30T13:23:52.361Z,14.45
2022-10-30T13:29:02.323Z,9.25
2022-10-30T13:34:25.459Z,11.77
2022-10-30T13:39:55.475Z,13.02
2022-10-30T13:45:27.190Z,9.10
2022-10-30T13:50:32.205Z,17.67
2022-10-30T13:55:36.436Z,12.77
2022-10-30T14:01:00.220Z,14.18
2022-10-30T14:06:16.594Z,9.38
2022-10-30T14:11:19.216Z,9.30
2022-10-30T14:16:35.085Z,16.20
2022-10-30T14:21:55.807Z,10.50
2022-10-30T14:27:03.960Z,12.07
2022-10-30T14:32:15.338Z,17.08
2022-10-30T14:37:23.630Z,19.48
2022-10-30T14:42:40.181Z,9.02
2022-10-30T14:47:54.403Z,8.80
2022-10-30T14:52:59.761Z,10.10
2022-10-30T14:58:02.331Z,8.82
2022-10-30T15:03:14.913Z,10.25
2022-10-30T15:08:54.788Z,9.38
2022-10-30T15:14:00.168Z,15.55
2022-10-30T15:19:06.977Z,20.17
2022-10-30T15:24:16.191Z,53.47
2022-10-30T15:29:25.022Z,33.95
2022-10-30T15:34:31.856Z,16.15
2022-10-30T15:39:34.235Z,13.90
2022-10-30T15:44:38.730Z,16.27
2022-10-30T15:49:43.320Z,26.42
2022-10-30T15:54:46.376Z,44.95
2022-10-30T15:59:55.569Z,19.05
2022-10-30T16:04:57.924Z,15.43
2022-10-30T16:10:02.030Z,28.67
2022-10-30T16:15:08.290Z,27.25
2022-10-30T16:20:11.409Z,19.77
2022-10-30T16:25:16.744Z,15.63
2022-10-30T16:30:19.233Z,21.63
2022-10-30T16:35:24.510Z,14.05
2022-10-30T16:40:28.936Z,16.52
2022-10-30T16:45:34.348Z,18.25
2022-10-30T16:50:38.699Z,13.95
2022-10-30T16:55:41.031Z,12.50
2022-10-30T17:00:50.552Z,19.70
2022-10-30T17:06:07.597Z,14.80
2022-10-30T17:11:21.445Z,16.07
2022-10-30T17:16:28.209Z,17.58
2022-10-30T17:21:39.058Z,14.93
2022-10-30T17:26:41.377Z,20.15
2022-10-30T17:31:44.179Z,20.15
2022-10-30T17:36:47.926Z,20.95
2022-10-30T17:41:50.343Z,22.13
2022-10-30T17:46:52.828Z,34.75
2022-10-30T17:51:55.347Z,24.55
2022-10-30T17:56:58.779Z,27.50
2022-10-30T18:02:01.475Z,28.60
2022-10-30T18:07:03.913Z,27.08
2022-10-30T18:12:07.870Z,34.85
2022-10-30T18:17:11.103Z,35.10
2022-10-30T18:22:14.675Z,54.03
2022-10-30T18:27:17.019Z,44.65
2022-10-30T18:32:19.336Z,44.75
2022-10-30T18:37:21.702Z,35.13
2022-10-30T18:42:24.243Z,39.25
2022-10-30T18:47:26.546Z,45.38
2022-10-30T18:52:28.841Z,52.15
2022-10-30T18:57:31.150Z,37.58
2022-10-30T19:02:33.651Z,39.90
2022-10-30T19:07:36.045Z,43.47
2022-10-30T19:12:38.757Z,45.25
2022-10-30T19:17:44.929Z,38.33
2022-10-30T19:22:47.269Z,54.22
2022-10-30T19:27:50.237Z,49.28
2022-10-30T19:32:52.555Z,57.10
2022-10-30T19:37:55.902Z,57.45
2022-10-30T19:42:59.151Z,43.10
2022-10-30T19:48:04.874Z,47.95
2022-10-30T19:53:08.129Z,55.75
2022-10-30T19:58:15.620Z,57.40
2022-10-30T20:08:23.353Z,51.72
2022-10-30T20:13:26.718Z,50.92
2022-10-30T20:18:31.712Z,54.75
2022-10-30T20:23:34.615Z,48.88
2022-10-30T20:28:38.924Z,68.22
2022-10-30T20:33:41.381Z,51.35
2022-10-30T20:38:43.696Z,57.60
2022-10-30T20:43:46.046Z,57.70
2022-10-30T20:48:48.583Z,70.25
2022-10-30T20:53:50.900Z,58.85
2022-10-30T20:58:53.579Z,73.57
2022-10-30T21:04:00.656Z,84.90
2022-10-30T21:09:04.312Z,66.65
2022-10-30T21:14:06.777Z,71.47
2022-10-30T21:19:09.112Z,72.97
2022-10-30T21:24:11.519Z,72.70
2022-10-30T21:29:13.759Z,65.35
2022-10-30T21:34:24.938Z,78.03
2022-10-30T21:39:27.309Z,81.45
2022-10-30T21:44:29.615Z,90.93
2022-10-30T21:49:32.050Z,85.35
2022-10-30T21:54:34.361Z,67.38
2022-10-30T21:59:36.614Z,57.80
2022-10-30T22:04:38.990Z,69.65
2022-10-30T22:09:41.422Z,81.43
2022-10-30T22:14:43.776Z,112.70
2022-10-30T22:19:46.052Z,111.75
2022-10-30T22:24:48.401Z,136.30
2022-10-30T22:29:50.632Z,123.60
2022-10-30T22:34:52.985Z,127.50
2022-10-30T22:39:55.219Z,128.13
2022-10-30T22:44:57.467Z,112.68
2022-10-30T22:49:59.723Z,106.93
2022-10-30T22:55:02.105Z,121.35
2022-10-30T23:00:06.093Z,94.75
2022-10-30T23:05:08.481Z,114.45
2022-10-30T23:10:10.841Z,93.07
2022-10-30T23:15:13.109Z,88.50
2022-10-30T23:20:15.538Z,91.57
2022-10-30T23:25:17.828Z,93.20
2022-10-30T23:30:20.194Z,79.57
2022-10-30T23:35:22.499Z,75.80
2022-10-30T23:40:24.899Z,85.63
2022-10-30T23:45:27.277Z,75.05
2022-10-30T23:50:29.587Z,62.60
2022-10-30T23:55:32.066Z,86.15
